DLH92W EDDH-EHAM
Flight info
| Callsign | DLH92W |
|---|---|
| Flight time | N/A |
| Altitude | 30000 |
| Route | WSN5G/33 WSN N125 BLUFA |
| Aircraft | A21N/M-SDE2E3FGHIRWXY/LB1 |
Departure
| Time | 2026-05-07 18:28 |
|---|---|
| Airport | Hamburg Helmut Schmidt Airport (EDDH) |
Arrival
| Time | N/A |
|---|---|
| Airport | Amsterdam Airport Schiphol (EHAM) |
| Time | Latitude | Longitude | Altitude | Speed | Heading |
|---|---|---|---|---|---|
| 2026-05-07 17:57 | 53.63160 | 10.00088 | 46 ft | 0 kts | 136° |
| 2026-05-07 18:13 | 53.63171 | 10.00071 | 44 ft | 2 kts | 143° |
| 2026-05-07 18:13 | 53.63186 | 10.00059 | 48 ft | 2 kts | 185° |
| 2026-05-07 18:13 | 53.63198 | 10.00070 | 45 ft | 1 kts | 226° |
| 2026-05-07 18:13 | 53.63200 | 10.00074 | 45 ft | 0 kts | 228° |
| 2026-05-07 18:14 | 53.63199 | 10.00071 | 45 ft | 2 kts | 228° |
| 2026-05-07 18:14 | 53.63181 | 10.00039 | 43 ft | 6 kts | 228° |
| 2026-05-07 18:15 | 53.63151 | 9.99981 | 48 ft | 8 kts | 230° |
| 2026-05-07 18:15 | 53.63107 | 9.99898 | 48 ft | 11 kts | 214° |
| 2026-05-07 18:15 | 53.63055 | 9.99908 | 48 ft | 7 kts | 153° |
| 2026-05-07 18:15 | 53.63041 | 9.99919 | 48 ft | 0 kts | 153° |
| 2026-05-07 18:16 | 53.63039 | 9.99921 | 48 ft | 1 kts | 153° |
| 2026-05-07 18:16 | 53.63027 | 9.99931 | 48 ft | 5 kts | 153° |
| 2026-05-07 18:16 | 53.62972 | 9.99979 | 48 ft | 10 kts | 152° |
| 2026-05-07 18:16 | 53.62949 | 9.99993 | 46 ft | 4 kts | 172° |
| 2026-05-07 18:17 | 53.62928 | 9.99984 | 49 ft | 0 kts | 214° |
| 2026-05-07 18:21 | 53.62926 | 9.99980 | 49 ft | 4 kts | 214° |
| 2026-05-07 18:21 | 53.62906 | 9.99940 | 49 ft | 4 kts | 240° |
| 2026-05-07 18:21 | 53.62898 | 9.99916 | 49 ft | 0 kts | 242° |
| 2026-05-07 18:25 | 53.62892 | 9.99896 | 46 ft | 4 kts | 242° |
| 2026-05-07 18:25 | 53.62869 | 9.99825 | 50 ft | 9 kts | 240° |
| 2026-05-07 18:26 | 53.62881 | 9.99737 | 49 ft | 8 kts | 322° |
| 2026-05-07 18:26 | 53.62887 | 9.99731 | 50 ft | 0 kts | 330° |
| 2026-05-07 18:26 | 53.62889 | 9.99730 | 50 ft | 3 kts | 330° |
| 2026-05-07 18:27 | 53.63061 | 9.99578 | 47 ft | 58 kts | 333° |
| 2026-05-07 18:27 | 53.63609 | 9.99111 | 47 ft | 119 kts | 333° |
| 2026-05-07 18:27 | 53.64485 | 9.98338 | 220 ft | 154 kts | 337° |
| 2026-05-07 18:27 | 53.65472 | 9.97459 | 646 ft | 165 kts | 335° |
| 2026-05-07 18:28 | 53.66514 | 9.96542 | 1248 ft | 172 kts | 338° |
| 2026-05-07 18:28 | 53.67598 | 9.95661 | 1844 ft | 174 kts | 340° |
| 2026-05-07 18:28 | 53.68646 | 9.94657 | 2423 ft | 178 kts | 325° |
| 2026-05-07 18:28 | 53.69689 | 9.93298 | 2854 ft | 199 kts | 325° |
| 2026-05-07 18:29 | 53.70819 | 9.91831 | 3402 ft | 210 kts | 324° |
| 2026-05-07 18:29 | 53.71995 | 9.90304 | 4058 ft | 217 kts | 325° |
| 2026-05-07 18:29 | 53.73201 | 9.88728 | 4764 ft | 222 kts | 320° |
| 2026-05-07 18:29 | 53.73992 | 9.86570 | 5609 ft | 216 kts | 276° |
| 2026-05-07 18:30 | 53.73713 | 9.84239 | 6382 ft | 208 kts | 230° |
| 2026-05-07 18:30 | 53.72659 | 9.82493 | 6859 ft | 219 kts | 207° |
| 2026-05-07 18:30 | 53.71296 | 9.81187 | 7340 ft | 232 kts | 206° |
| 2026-05-07 18:30 | 53.69816 | 9.79979 | 7908 ft | 239 kts | 203° |
| 2026-05-07 18:31 | 53.68370 | 9.78552 | 8341 ft | 241 kts | 217° |
| 2026-05-07 18:31 | 53.67087 | 9.76722 | 8619 ft | 243 kts | 219° |
| 2026-05-07 18:31 | 53.65930 | 9.74647 | 8913 ft | 244 kts | 235° |
| 2026-05-07 18:31 | 53.65101 | 9.72155 | 9198 ft | 245 kts | 246° |
| 2026-05-07 18:32 | 53.64518 | 9.69442 | 9486 ft | 247 kts | 255° |
| 2026-05-07 18:32 | 53.64138 | 9.66624 | 9799 ft | 247 kts | 257° |
| 2026-05-07 18:32 | 53.63776 | 9.63781 | 10030 ft | 249 kts | 260° |
| 2026-05-07 18:32 | 53.63897 | 9.60762 | 10069 ft | 274 kts | 292° |
| 2026-05-07 18:33 | 53.64866 | 9.57915 | 10151 ft | 288 kts | 301° |
| 2026-05-07 18:33 | 53.65572 | 9.54654 | 10430 ft | 310 kts | 274° |
| 2026-05-07 18:33 | 53.65212 | 9.50983 | 10765 ft | 331 kts | 245° |
| 2026-05-07 18:33 | 53.63810 | 9.47819 | 11206 ft | 345 kts | 221° |
| 2026-05-07 18:34 | 53.62005 | 9.45244 | 12184 ft | 343 kts | 220° |
| 2026-05-07 18:34 | 53.60239 | 9.42597 | 13325 ft | 339 kts | 223° |
| 2026-05-07 18:34 | 53.58523 | 9.39788 | 13912 ft | 352 kts | 225° |
| 2026-05-07 18:34 | 53.56800 | 9.36743 | 14341 ft | 365 kts | 227° |
| 2026-05-07 18:35 | 53.55074 | 9.33562 | 14968 ft | 371 kts | 228° |
| 2026-05-07 18:35 | 53.53389 | 9.30253 | 15696 ft | 374 kts | 232° |
| 2026-05-07 18:35 | 53.51812 | 9.26755 | 16368 ft | 379 kts | 233° |
| 2026-05-07 18:35 | 53.50246 | 9.23162 | 17010 ft | 383 kts | 234° |
| 2026-05-07 18:36 | 53.48669 | 9.19524 | 17675 ft | 387 kts | 234° |
| 2026-05-07 18:36 | 53.47076 | 9.15850 | 18355 ft | 390 kts | 234° |
| 2026-05-07 18:36 | 53.45469 | 9.12150 | 18907 ft | 394 kts | 234° |
| 2026-05-07 18:36 | 53.43844 | 9.08419 | 19452 ft | 398 kts | 234° |
| 2026-05-07 18:37 | 53.42209 | 9.04668 | 20075 ft | 399 kts | 234° |
| 2026-05-07 18:37 | 53.40563 | 9.00900 | 20664 ft | 402 kts | 234° |
| 2026-05-07 18:37 | 53.38904 | 8.97107 | 21221 ft | 405 kts | 234° |
| 2026-05-07 18:37 | 53.37234 | 8.93295 | 21798 ft | 407 kts | 234° |
| 2026-05-07 18:38 | 53.35583 | 8.89431 | 22337 ft | 410 kts | 237° |
| 2026-05-07 18:38 | 53.34210 | 8.85229 | 22855 ft | 412 kts | 245° |
| 2026-05-07 18:38 | 53.33070 | 8.80819 | 23385 ft | 415 kts | 248° |
| 2026-05-07 18:38 | 53.32037 | 8.76303 | 23851 ft | 417 kts | 250° |
| 2026-05-07 18:39 | 53.31050 | 8.71717 | 24203 ft | 421 kts | 250° |
| 2026-05-07 18:39 | 53.30068 | 8.67082 | 24570 ft | 425 kts | 250° |
| 2026-05-07 18:39 | 53.29080 | 8.62414 | 24975 ft | 427 kts | 250° |
| 2026-05-07 18:39 | 53.28082 | 8.57732 | 25380 ft | 429 kts | 250° |
| 2026-05-07 18:40 | 53.27069 | 8.53035 | 25756 ft | 431 kts | 250° |
| 2026-05-07 18:40 | 53.26067 | 8.48297 | 26127 ft | 433 kts | 251° |
| 2026-05-07 18:40 | 53.25125 | 8.43508 | 26483 ft | 436 kts | 252° |
| 2026-05-07 18:40 | 53.24214 | 8.38670 | 26847 ft | 438 kts | 252° |
| 2026-05-07 18:41 | 53.23310 | 8.33796 | 27196 ft | 440 kts | 252° |
| 2026-05-07 18:41 | 53.22405 | 8.28916 | 27539 ft | 442 kts | 252° |
| 2026-05-07 18:41 | 53.21489 | 8.24008 | 27868 ft | 444 kts | 252° |
| 2026-05-07 18:41 | 53.20564 | 8.19096 | 28300 ft | 443 kts | 252° |
| 2026-05-07 18:42 | 53.19633 | 8.14191 | 28685 ft | 444 kts | 252° |
| 2026-05-07 18:42 | 53.18701 | 8.09284 | 29122 ft | 443 kts | 252° |
| 2026-05-07 18:42 | 53.17777 | 8.04403 | 29577 ft | 441 kts | 252° |
| 2026-05-07 18:42 | 53.16857 | 7.99526 | 29979 ft | 441 kts | 252° |
| 2026-05-07 18:43 | 53.15906 | 7.94653 | 30095 ft | 442 kts | 249° |
| 2026-05-07 18:43 | 53.13602 | 7.85197 | 30105 ft | 441 kts | 246° |
| 2026-05-07 18:44 | 53.11165 | 7.75907 | 30108 ft | 441 kts | 246° |
| 2026-05-07 18:44 | 53.08690 | 7.66580 | 30074 ft | 440 kts | 246° |
| 2026-05-07 18:44 | 53.07464 | 7.61947 | 29425 ft | 436 kts | 245° |
| 2026-05-07 18:45 | 53.06243 | 7.57325 | 28554 ft | 437 kts | 246° |
| 2026-05-07 18:45 | 53.05024 | 7.52711 | 27842 ft | 434 kts | 246° |
| 2026-05-07 18:45 | 53.03819 | 7.48147 | 27255 ft | 429 kts | 246° |
| 2026-05-07 18:45 | 53.02623 | 7.43629 | 26633 ft | 425 kts | 246° |
| 2026-05-07 18:46 | 53.01439 | 7.39164 | 26060 ft | 420 kts | 246° |
| 2026-05-07 18:46 | 53.00270 | 7.34762 | 25577 ft | 413 kts | 246° |
| 2026-05-07 18:46 | 52.99116 | 7.30429 | 25027 ft | 409 kts | 246° |
| 2026-05-07 18:46 | 52.97965 | 7.26117 | 24390 ft | 408 kts | 246° |
| 2026-05-07 18:47 | 52.96818 | 7.21829 | 23805 ft | 405 kts | 246° |
| 2026-05-07 18:47 | 52.95680 | 7.17580 | 23202 ft | 401 kts | 246° |
| 2026-05-07 18:47 | 52.94552 | 7.13374 | 22546 ft | 398 kts | 246° |
| 2026-05-07 18:47 | 52.93383 | 7.09026 | 21804 ft | 396 kts | 245° |
| 2026-05-07 18:48 | 52.92276 | 7.04917 | 21174 ft | 393 kts | 245° |
| 2026-05-07 18:48 | 52.91155 | 7.00763 | 20577 ft | 389 kts | 245° |
| 2026-05-07 18:48 | 52.90067 | 6.96738 | 20003 ft | 386 kts | 245° |
| 2026-05-07 18:48 | 52.88974 | 6.92700 | 19364 ft | 383 kts | 245° |
| 2026-05-07 18:49 | 52.87875 | 6.88654 | 18453 ft | 389 kts | 245° |
| 2026-05-07 18:49 | 52.86824 | 6.84508 | 17595 ft | 390 kts | 248° |
| 2026-05-07 18:49 | 52.85823 | 6.80350 | 16835 ft | 388 kts | 248° |
| 2026-05-07 18:49 | 52.84830 | 6.76211 | 16159 ft | 384 kts | 248° |
| 2026-05-07 18:50 | 52.83850 | 6.72134 | 15501 ft | 380 kts | 248° |
| 2026-05-07 18:50 | 52.82878 | 6.68089 | 14861 ft | 376 kts | 248° |
| 2026-05-07 18:50 | 52.81915 | 6.64090 | 14211 ft | 373 kts | 248° |
| 2026-05-07 18:50 | 52.80962 | 6.60130 | 13596 ft | 368 kts | 248° |
| 2026-05-07 18:51 | 52.80020 | 6.56222 | 12916 ft | 364 kts | 248° |
| 2026-05-07 18:51 | 52.79087 | 6.52357 | 12196 ft | 361 kts | 248° |
| 2026-05-07 18:51 | 52.78156 | 6.48506 | 11481 ft | 360 kts | 249° |
| 2026-05-07 18:51 | 52.77231 | 6.44681 | 10804 ft | 357 kts | 249° |
| 2026-05-07 18:52 | 52.76314 | 6.40896 | 10313 ft | 353 kts | 249° |
| 2026-05-07 18:52 | 52.75404 | 6.37138 | 10132 ft | 353 kts | 249° |
| 2026-05-07 18:52 | 52.74491 | 6.33371 | 10094 ft | 353 kts | 249° |
| 2026-05-07 18:52 | 52.73577 | 6.29606 | 10101 ft | 354 kts | 249° |
| 2026-05-07 18:53 | 52.72662 | 6.25839 | 10109 ft | 353 kts | 249° |
| 2026-05-07 18:53 | 52.71748 | 6.22082 | 10094 ft | 353 kts | 249° |
| 2026-05-07 18:53 | 52.70846 | 6.18374 | 10095 ft | 353 kts | 249° |
| 2026-05-07 18:53 | 52.69931 | 6.14611 | 10099 ft | 354 kts | 249° |
| 2026-05-07 18:54 | 52.69015 | 6.10853 | 10100 ft | 353 kts | 249° |
| 2026-05-07 18:54 | 52.68100 | 6.07101 | 10089 ft | 353 kts | 249° |
| 2026-05-07 18:54 | 52.67183 | 6.03344 | 10104 ft | 353 kts | 249° |
| 2026-05-07 18:54 | 52.66270 | 5.99598 | 10086 ft | 353 kts | 248° |
| 2026-05-07 18:55 | 52.65353 | 5.95845 | 10089 ft | 352 kts | 248° |
| 2026-05-07 18:55 | 52.64439 | 5.92105 | 10094 ft | 352 kts | 248° |
| 2026-05-07 18:55 | 52.63526 | 5.88374 | 10088 ft | 351 kts | 248° |
| 2026-05-07 18:55 | 52.62611 | 5.84639 | 10088 ft | 351 kts | 248° |
| 2026-05-07 18:56 | 52.61722 | 5.81014 | 10084 ft | 330 kts | 248° |
| 2026-05-07 18:56 | 52.60877 | 5.77633 | 10083 ft | 309 kts | 245° |
| 2026-05-07 18:56 | 52.59842 | 5.74673 | 10082 ft | 290 kts | 237° |
| 2026-05-07 18:56 | 52.58703 | 5.72017 | 10083 ft | 282 kts | 234° |
| 2026-05-07 18:57 | 52.57502 | 5.69468 | 10088 ft | 282 kts | 231° |
| 2026-05-07 18:57 | 52.56288 | 5.66925 | 10083 ft | 284 kts | 236° |
| 2026-05-07 18:57 | 52.55172 | 5.64260 | 10022 ft | 282 kts | 236° |
| 2026-05-07 18:57 | 52.54074 | 5.61597 | 9561 ft | 280 kts | 237° |
| 2026-05-07 18:58 | 52.53003 | 5.58937 | 9054 ft | 278 kts | 237° |
| 2026-05-07 18:58 | 52.51950 | 5.56274 | 8573 ft | 278 kts | 237° |
| 2026-05-07 18:58 | 52.50909 | 5.53613 | 8100 ft | 276 kts | 237° |
| 2026-05-07 18:58 | 52.49876 | 5.50965 | 7633 ft | 275 kts | 236° |
| 2026-05-07 18:59 | 52.48850 | 5.48332 | 7205 ft | 272 kts | 236° |
| 2026-05-07 18:59 | 52.47839 | 5.45738 | 6872 ft | 267 kts | 236° |
| 2026-05-07 18:59 | 52.46843 | 5.43193 | 6438 ft | 265 kts | 236° |
| 2026-05-07 18:59 | 52.45845 | 5.40647 | 5958 ft | 265 kts | 236° |
| 2026-05-07 19:00 | 52.44846 | 5.38110 | 5429 ft | 266 kts | 236° |
| 2026-05-07 19:00 | 52.43857 | 5.35598 | 4953 ft | 266 kts | 236° |
| 2026-05-07 19:00 | 52.42852 | 5.33050 | 4442 ft | 266 kts | 236° |
| 2026-05-07 19:00 | 52.41847 | 5.30505 | 4129 ft | 265 kts | 236° |
| 2026-05-07 19:01 | 52.40850 | 5.27975 | 4076 ft | 265 kts | 236° |
| 2026-05-07 19:01 | 52.39847 | 5.25431 | 4079 ft | 266 kts | 236° |
| 2026-05-07 19:01 | 52.38844 | 5.22893 | 4075 ft | 265 kts | 236° |
| 2026-05-07 19:01 | 52.37842 | 5.20354 | 4076 ft | 266 kts | 236° |
| 2026-05-07 19:02 | 52.36837 | 5.17816 | 4075 ft | 266 kts | 236° |
| 2026-05-07 19:02 | 52.35830 | 5.15276 | 4077 ft | 266 kts | 236° |
| 2026-05-07 19:02 | 52.34821 | 5.12735 | 4078 ft | 266 kts | 236° |
| 2026-05-07 19:02 | 52.33862 | 5.10154 | 4078 ft | 266 kts | 242° |
| 2026-05-07 19:03 | 52.33124 | 5.07376 | 4080 ft | 266 kts | 248° |
| 2026-05-07 19:03 | 52.32469 | 5.04550 | 4077 ft | 266 kts | 244° |
| 2026-05-07 19:03 | 52.31533 | 5.02000 | 4074 ft | 265 kts | 233° |
| 2026-05-07 19:03 | 52.30423 | 4.99590 | 4072 ft | 266 kts | 231° |
| 2026-05-07 19:04 | 52.29308 | 4.97187 | 4080 ft | 266 kts | 232° |
| 2026-05-07 19:04 | 52.28207 | 4.94762 | 4071 ft | 265 kts | 232° |
| 2026-05-07 19:04 | 52.27110 | 4.92349 | 3870 ft | 264 kts | 232° |
| 2026-05-07 19:04 | 52.26024 | 4.89942 | 3430 ft | 263 kts | 232° |
| 2026-05-07 19:05 | 52.24946 | 4.87542 | 3062 ft | 262 kts | 232° |
| 2026-05-07 19:05 | 52.23872 | 4.85133 | 2994 ft | 264 kts | 232° |
| 2026-05-07 19:05 | 52.22789 | 4.82702 | 2997 ft | 265 kts | 232° |
| 2026-05-07 19:05 | 52.21700 | 4.80276 | 2990 ft | 263 kts | 232° |
| 2026-05-07 19:06 | 52.20999 | 4.78717 | 2976 ft | 251 kts | 232° |
| 2026-05-07 19:06 | 52.19064 | 4.74393 | 2884 ft | 230 kts | 232° |
| 2026-05-07 19:06 | 52.18112 | 4.72278 | 2410 ft | 232 kts | 232° |
| 2026-05-07 19:07 | 52.17150 | 4.70161 | 2058 ft | 233 kts | 232° |
| 2026-05-07 19:07 | 52.16184 | 4.68042 | 2004 ft | 234 kts | 232° |
| 2026-05-07 19:07 | 52.15222 | 4.65899 | 1997 ft | 234 kts | 236° |
| 2026-05-07 19:07 | 52.14697 | 4.63475 | 1983 ft | 219 kts | 268° |
| 2026-05-07 19:08 | 52.15039 | 4.61261 | 2007 ft | 193 kts | 305° |
| 2026-05-07 19:08 | 52.15973 | 4.59810 | 2007 ft | 185 kts | 328° |
| 2026-05-07 19:08 | 52.16690 | 4.59060 | 2001 ft | 185 kts | 331° |